createdAt,value
2023-03-06T00:01:33.553Z,12.60
2023-03-06T00:04:08.109Z,12.53
2023-03-06T00:06:40.706Z,13.25
2023-03-06T00:09:13.802Z,9.98
2023-03-06T00:11:46.840Z,12.03
2023-03-06T00:14:19.201Z,14.38
2023-03-06T00:16:56.979Z,11.48
2023-03-06T00:19:30.173Z,12.00
2023-03-06T00:22:03.466Z,14.28
2023-03-06T00:24:36.553Z,14.53
2023-03-06T00:27:09.451Z,15.43
2023-03-06T00:29:42.651Z,14.58
2023-03-06T00:32:16.048Z,13.95
2023-03-06T00:34:51.708Z,15.60
2023-03-06T00:37:25.298Z,13.50
2023-03-06T00:39:58.286Z,13.40
2023-03-06T00:42:30.756Z,13.28
2023-03-06T00:45:03.169Z,13.15
2023-03-06T00:47:36.237Z,11.43
2023-03-06T00:50:10.073Z,10.65
2023-03-06T00:52:42.620Z,10.72
2023-03-06T00:55:15.106Z,10.78
2023-03-06T00:57:48.691Z,10.18
2023-03-06T01:00:22.255Z,8.20
2023-03-06T01:02:56.187Z,7.40
2023-03-06T01:05:30.134Z,9.95
2023-03-06T01:08:05.461Z,9.40
2023-03-06T01:10:41.732Z,6.17
2023-03-06T01:13:14.502Z,8.70
2023-03-06T01:15:47.500Z,6.45
2023-03-06T01:18:20.937Z,8.08
2023-03-06T01:20:53.573Z,6.22
2023-03-06T01:23:26.437Z,6.45
2023-03-06T01:26:00.159Z,8.90
2023-03-06T01:28:34.195Z,9.75
2023-03-06T01:33:39.676Z,11.48
2023-03-06T01:36:13.181Z,6.47
2023-03-06T01:38:45.751Z,7.85
2023-03-06T01:41:21.303Z,8.93
2023-03-06T01:43:54.453Z,8.75
2023-03-06T01:46:44.892Z,8.58
2023-03-06T01:49:26.798Z,8.93
2023-03-06T01:52:17.528Z,8.50
2023-03-06T01:55:04.031Z,8.33
2023-03-06T01:57:50.369Z,8.85
2023-03-06T02:00:27.148Z,9.98
2023-03-06T02:03:11.016Z,6.25
2023-03-06T02:05:44.137Z,6.90
2023-03-06T02:08:20.386Z,6.03
2023-03-06T02:11:20.654Z,7.05
2023-03-06T02:13:55.339Z,7.78
2023-03-06T02:16:30.747Z,8.38
2023-03-06T02:19:03.794Z,8.40
2023-03-06T02:21:37.458Z,5.22
2023-03-06T02:24:43.857Z,6.78
2023-03-06T02:27:17.604Z,7.22
2023-03-06T02:32:22.543Z,6.90
2023-03-06T02:34:57.927Z,9.38
2023-03-06T02:37:30.607Z,6.72
2023-03-06T02:40:09.039Z,6.58
2023-03-06T02:42:47.716Z,5.85
2023-03-06T02:45:28.085Z,7.78
2023-03-06T02:48:02.206Z,9.08
2023-03-06T02:50:36.054Z,6.33
2023-03-06T02:53:08.723Z,5.90
2023-03-06T02:55:41.357Z,7.37
2023-03-06T02:58:14.583Z,5.60
2023-03-06T03:00:47.749Z,6.85
2023-03-06T03:03:21.678Z,6.72
2023-03-06T03:05:53.998Z,6.80
2023-03-06T03:08:28.810Z,5.97
2023-03-06T03:11:03.165Z,8.43
2023-03-06T03:13:37.788Z,6.75
2023-03-06T03:16:15.472Z,6.58
2023-03-06T03:18:50.418Z,5.60
2023-03-06T03:21:24.476Z,5.50
2023-03-06T03:23:58.443Z,7.10
2023-03-06T03:26:32.350Z,7.08
2023-03-06T03:29:06.571Z,7.10
2023-03-06T03:31:39.656Z,8.50
2023-03-06T03:34:12.090Z,7.22
2023-03-06T03:36:46.864Z,8.58
2023-03-06T03:39:20.177Z,11.40
2023-03-06T03:41:53.169Z,5.95
2023-03-06T03:44:25.807Z,10.53
2023-03-06T03:46:59.652Z,6.37
2023-03-06T03:49:32.118Z,9.70
2023-03-06T03:52:05.975Z,12.27
2023-03-06T03:54:39.484Z,10.75
2023-03-06T03:57:11.797Z,9.03
2023-03-06T03:59:46.513Z,10.25
2023-03-06T04:02:23.974Z,11.20
2023-03-06T04:05:01.377Z,8.98
2023-03-06T04:07:34.370Z,9.43
2023-03-06T04:10:08.430Z,10.85
2023-03-06T04:15:14.258Z,10.88
2023-03-06T04:17:47.069Z,11.08
2023-03-06T04:20:21.263Z,11.10
2023-03-06T04:22:55.015Z,8.50
2023-03-06T04:25:27.690Z,11.15
2023-03-06T04:28:00.611Z,11.60
2023-03-06T04:30:33.945Z,10.00
2023-03-06T04:33:07.270Z,12.28
2023-03-06T04:35:40.218Z,11.63
2023-03-06T04:38:14.443Z,8.58
2023-03-06T04:40:49.803Z,9.90
2023-03-06T04:43:23.586Z,9.08
2023-03-06T04:45:57.001Z,11.50
2023-03-06T04:48:30.146Z,12.23
2023-03-06T04:51:02.549Z,10.15
2023-03-06T04:53:36.314Z,13.48
2023-03-06T04:56:09.578Z,15.30
2023-03-06T04:58:44.137Z,16.57
2023-03-06T05:01:16.891Z,15.93
2023-03-06T05:03:50.168Z,12.75
2023-03-06T05:06:22.892Z,13.22
2023-03-06T05:08:55.503Z,13.30
2023-03-06T05:11:28.012Z,12.53
2023-03-06T05:14:01.137Z,15.32
2023-03-06T05:16:34.151Z,14.18
2023-03-06T05:19:06.900Z,14.10
2023-03-06T05:21:39.430Z,11.93
2023-03-06T05:24:12.067Z,15.15
2023-03-06T05:26:44.889Z,13.20
2023-03-06T05:29:17.318Z,14.65
2023-03-06T05:31:49.796Z,17.55
2023-03-06T05:34:22.155Z,15.60
2023-03-06T05:36:55.042Z,12.13
2023-03-06T05:39:28.449Z,13.98
2023-03-06T05:42:01.188Z,13.53
2023-03-06T05:44:36.091Z,12.93
2023-03-06T05:47:09.355Z,15.35
2023-03-06T05:49:41.984Z,13.58
2023-03-06T05:52:15.468Z,12.95
2023-03-06T05:54:52.087Z,13.60
2023-03-06T05:57:25.373Z,12.95
2023-03-06T05:59:58.975Z,15.68
2023-03-06T06:02:31.697Z,18.42
2023-03-06T06:05:05.142Z,18.42
2023-03-06T06:07:38.222Z,13.50
2023-03-06T06:10:12.735Z,14.98
2023-03-06T06:12:45.271Z,11.50
2023-03-06T06:15:17.989Z,14.75
2023-03-06T06:17:51.959Z,13.68
2023-03-06T06:20:24.703Z,13.68
2023-03-06T06:22:57.898Z,13.25
2023-03-06T06:25:30.503Z,12.68
2023-03-06T06:28:03.641Z,10.58
2023-03-06T06:30:36.617Z,14.30
2023-03-06T06:35:42.300Z,7.97
2023-03-06T06:38:15.364Z,10.78
2023-03-06T06:41:18.070Z,9.23
2023-03-06T06:43:23.143Z,10.45
2023-03-06T06:46:08.854Z,14.70
2023-03-06T06:48:29.846Z,10.78
2023-03-06T06:51:02.373Z,10.03
2023-03-06T06:53:34.988Z,14.93
2023-03-06T06:56:08.874Z,9.65
2023-03-06T06:58:42.860Z,11.33
2023-03-06T07:01:16.731Z,10.55
2023-03-06T07:03:49.786Z,10.30
2023-03-06T07:06:23.085Z,9.78
2023-03-06T07:08:57.552Z,10.08
2023-03-06T07:11:30.340Z,9.57
2023-03-06T07:14:03.327Z,9.00
2023-03-06T07:16:35.947Z,13.35
2023-03-06T07:19:09.193Z,9.53
2023-03-06T07:21:42.017Z,10.78
2023-03-06T07:24:14.645Z,10.78
2023-03-06T07:26:50.792Z,10.20
2023-03-06T07:29:24.261Z,12.05
2023-03-06T07:31:56.682Z,10.80
2023-03-06T07:34:29.970Z,9.53
2023-03-06T07:37:02.467Z,9.40
2023-03-06T07:39:35.789Z,9.95
2023-03-06T07:42:08.589Z,7.28
2023-03-06T07:44:43.361Z,7.50
2023-03-06T07:47:16.520Z,6.05
2023-03-06T07:49:48.931Z,8.80
2023-03-06T07:52:21.689Z,8.08
2023-03-06T07:54:54.194Z,6.67
2023-03-06T07:57:26.717Z,11.33
2023-03-06T07:59:59.321Z,6.78
2023-03-06T08:02:32.507Z,6.35
2023-03-06T08:05:05.162Z,7.75
2023-03-06T08:07:37.851Z,7.10
2023-03-06T08:10:10.932Z,10.88
2023-03-06T08:12:43.984Z,7.60
2023-03-06T08:15:16.463Z,10.15
2023-03-06T08:17:50.328Z,10.53
2023-03-06T08:20:23.292Z,15.63
2023-03-06T08:22:55.887Z,9.23
2023-03-06T08:25:28.478Z,8.80
2023-03-06T08:28:01.789Z,8.78
2023-03-06T08:30:34.609Z,7.22
2023-03-06T08:33:07.224Z,9.15
2023-03-06T08:35:39.837Z,10.60
2023-03-06T08:38:12.661Z,10.88
2023-03-06T08:40:45.345Z,6.33
2023-03-06T08:43:18.521Z,6.87
2023-03-06T08:45:55.704Z,8.63
2023-03-06T08:48:28.806Z,9.55
2023-03-06T08:51:01.348Z,9.43
2023-03-06T08:53:43.201Z,11.35
2023-03-06T08:56:08.652Z,7.78
2023-03-06T08:58:41.031Z,8.70
2023-03-06T09:01:22.811Z,8.60
2023-03-06T09:03:57.433Z,6.53
2023-03-06T09:06:32.087Z,6.33
2023-03-06T09:09:05.012Z,5.25
2023-03-06T09:11:38.323Z,6.45
2023-03-06T09:14:10.905Z,5.05
2023-03-06T09:16:43.522Z,6.25
2023-03-06T09:19:16.024Z,5.30
2023-03-06T09:21:49.333Z,7.85
2023-03-06T09:24:21.788Z,7.53
2023-03-06T09:26:54.358Z,5.42
2023-03-06T09:29:29.466Z,5.67
2023-03-06T09:32:03.014Z,5.40
2023-03-06T09:34:36.624Z,8.38
2023-03-06T09:37:09.987Z,4.90
2023-03-06T09:39:42.490Z,4.65
2023-03-06T09:42:21.520Z,5.78
2023-03-06T09:44:57.216Z,5.28
2023-03-06T09:47:39.722Z,5.75
2023-03-06T09:50:31.905Z,7.10
2023-03-06T09:53:16.753Z,7.22
2023-03-06T09:56:08.772Z,7.05
2023-03-06T09:58:45.489Z,15.48
2023-03-06T10:01:27.727Z,9.00
2023-03-06T10:04:35.026Z,7.22
2023-03-06T10:07:18.063Z,7.35
2023-03-06T10:10:07.058Z,3.90
2023-03-06T10:12:44.418Z,4.25
2023-03-06T10:15:21.328Z,4.95
2023-03-06T10:17:54.479Z,8.03
2023-03-06T10:20:40.496Z,5.30
2023-03-06T10:23:51.420Z,7.08
2023-03-06T10:26:28.072Z,4.78
2023-03-06T10:29:26.386Z,4.05
2023-03-06T10:32:15.562Z,7.42
2023-03-06T10:34:48.850Z,5.95
2023-03-06T10:37:23.035Z,5.03
2023-03-06T10:39:59.970Z,13.68
2023-03-06T10:42:32.788Z,7.87
2023-03-06T10:45:12.838Z,7.90
2023-03-06T10:50:31.484Z,3.58
2023-03-06T10:53:10.556Z,6.35
2023-03-06T10:55:43.753Z,4.25
2023-03-06T10:58:29.385Z,5.62
2023-03-06T11:01:22.887Z,4.47
2023-03-06T11:03:55.345Z,3.77
2023-03-06T11:06:38.135Z,5.90
2023-03-06T11:09:23.568Z,3.40
2023-03-06T11:11:57.910Z,6.33
2023-03-06T11:14:30.485Z,3.25
2023-03-06T11:17:03.492Z,3.50
2023-03-06T11:19:36.353Z,4.35
2023-03-06T11:22:19.726Z,3.87
2023-03-06T11:24:52.683Z,6.37
2023-03-06T11:27:33.326Z,3.55
2023-03-06T11:30:08.936Z,4.33
2023-03-06T11:32:57.739Z,16.10
2023-03-06T11:35:35.889Z,9.08
2023-03-06T11:38:25.440Z,4.75
2023-03-06T11:41:03.592Z,7.28
2023-03-06T11:43:56.798Z,5.20
2023-03-06T11:46:42.823Z,5.05
2023-03-06T11:49:41.169Z,2.67
2023-03-06T11:52:20.917Z,4.10
2023-03-06T11:54:56.847Z,3.20
2023-03-06T11:57:49.707Z,6.08
2023-03-06T12:00:55.541Z,4.42
2023-03-06T12:03:44.622Z,2.92
2023-03-06T12:06:57.090Z,2.50
2023-03-06T12:09:43.608Z,3.77
2023-03-06T12:12:57.328Z,5.75
2023-03-06T12:16:16.393Z,3.95
2023-03-06T12:19:30.350Z,3.02
2023-03-06T12:22:37.651Z,5.20
2023-03-06T12:25:45.993Z,10.95
2023-03-06T12:28:47.087Z,16.70
2023-03-06T12:32:08.826Z,10.78
2023-03-06T12:35:17.802Z,9.23
2023-03-06T12:38:22.311Z,7.90
2023-03-06T12:41:33.287Z,4.95
2023-03-06T12:44:45.417Z,5.40
2023-03-06T12:47:22.066Z,5.90
2023-03-06T12:50:02.020Z,4.75
2023-03-06T12:52:34.930Z,6.50
2023-03-06T12:55:08.851Z,4.25
2023-03-06T12:57:42.155Z,5.20
2023-03-06T13:00:37.797Z,2.22
2023-03-06T13:03:40.263Z,2.52
2023-03-06T13:06:36.536Z,5.75
2023-03-06T13:09:29.314Z,3.75
2023-03-06T13:14:54.200Z,2.30
2023-03-06T13:17:29.139Z,1.87
2023-03-06T13:20:19.849Z,3.33
2023-03-06T13:22:52.721Z,3.52
2023-03-06T13:25:33.572Z,4.30
2023-03-06T13:28:06.810Z,5.70
2023-03-06T13:30:43.914Z,4.92
2023-03-06T13:33:35.068Z,3.05
2023-03-06T13:36:33.687Z,3.83
2023-03-06T13:39:09.455Z,3.40
2023-03-06T13:41:55.863Z,4.65
2023-03-06T13:44:33.182Z,5.62
2023-03-06T13:47:21.682Z,2.87
2023-03-06T13:49:54.006Z,6.67
2023-03-06T13:52:34.408Z,4.05
2023-03-06T13:55:17.879Z,3.12
2023-03-06T13:58:23.645Z,3.70
2023-03-06T14:01:23.680Z,2.22
2023-03-06T14:04:44.666Z,2.47
2023-03-06T14:07:34.834Z,2.77
2023-03-06T14:10:21.112Z,2.70
2023-03-06T14:13:04.923Z,3.20
2023-03-06T14:15:49.512Z,4.07
2023-03-06T14:18:41.273Z,3.55
2023-03-06T14:21:15.994Z,4.08
2023-03-06T14:26:23.115Z,3.45
2023-03-06T14:29:20.596Z,6.10
2023-03-06T14:31:56.003Z,3.00
2023-03-06T14:34:35.963Z,4.35
2023-03-06T14:37:30.123Z,5.20
2023-03-06T14:40:02.454Z,6.35
2023-03-06T14:42:35.312Z,5.03
2023-03-06T14:45:12.618Z,6.00
2023-03-06T14:47:53.448Z,3.62
2023-03-06T14:50:30.820Z,3.77
2023-03-06T14:53:26.194Z,6.42
2023-03-06T14:56:06.439Z,4.97
2023-03-06T14:59:01.452Z,3.22
2023-03-06T15:04:40.410Z,2.95
2023-03-06T15:07:19.639Z,4.22
2023-03-06T15:09:53.880Z,4.58
2023-03-06T15:12:45.000Z,8.08
2023-03-06T15:15:22.457Z,4.95
2023-03-06T15:17:55.527Z,4.97
2023-03-06T15:21:20.280Z,6.65
2023-03-06T15:23:55.489Z,4.75
2023-03-06T15:26:33.465Z,8.55
2023-03-06T15:29:19.005Z,7.80
2023-03-06T15:31:52.099Z,7.65
2023-03-06T15:34:24.723Z,6.80
2023-03-06T15:36:59.546Z,8.80
2023-03-06T15:39:38.952Z,8.43
2023-03-06T15:42:25.206Z,8.08
2023-03-06T15:45:02.563Z,14.60
2023-03-06T15:47:35.116Z,9.03
2023-03-06T15:50:30.395Z,9.83
2023-03-06T15:55:34.621Z,13.00
2023-03-06T15:58:07.125Z,8.93
2023-03-06T16:00:39.862Z,9.33
2023-03-06T16:03:13.233Z,10.45
2023-03-06T16:05:47.491Z,11.00
2023-03-06T16:08:20.042Z,11.33
2023-03-06T16:10:54.774Z,12.88
2023-03-06T16:13:29.005Z,12.05
2023-03-06T16:16:01.488Z,10.15
2023-03-06T16:18:34.559Z,12.85
2023-03-06T16:21:07.444Z,18.57
2023-03-06T16:23:41.283Z,14.00
2023-03-06T16:26:27.682Z,13.18
2023-03-06T16:29:01.073Z,13.95
2023-03-06T16:31:33.922Z,11.57
2023-03-06T16:34:07.849Z,12.07
2023-03-06T16:36:40.247Z,13.90
2023-03-06T16:39:37.520Z,13.13
2023-03-06T16:42:10.272Z,14.90
2023-03-06T16:44:42.878Z,18.07
2023-03-06T16:47:16.138Z,36.42
2023-03-06T16:49:48.654Z,29.95
2023-03-06T16:52:22.227Z,18.67
2023-03-06T16:54:55.864Z,21.02
2023-03-06T16:57:30.024Z,15.72
2023-03-06T17:00:03.318Z,17.92
2023-03-06T17:02:36.052Z,16.10
2023-03-06T17:05:09.263Z,16.95
2023-03-06T17:07:42.576Z,18.98
2023-03-06T17:10:16.873Z,18.17
2023-03-06T17:12:50.349Z,16.73
2023-03-06T17:15:23.471Z,17.12
2023-03-06T17:17:58.058Z,15.60
2023-03-06T17:20:31.296Z,21.65
2023-03-06T17:23:04.056Z,14.53
2023-03-06T17:25:38.226Z,19.00
2023-03-06T17:28:11.712Z,17.80
2023-03-06T17:30:44.184Z,17.57
2023-03-06T17:33:17.671Z,17.57
2023-03-06T17:35:50.726Z,18.62
2023-03-06T17:38:23.916Z,19.00
2023-03-06T17:40:56.336Z,28.17
2023-03-06T17:43:28.697Z,25.55
2023-03-06T17:46:05.798Z,19.07
2023-03-06T17:48:38.353Z,21.93
2023-03-06T17:51:12.163Z,20.17
2023-03-06T17:53:45.173Z,21.75
2023-03-06T17:56:18.999Z,16.48
2023-03-06T17:58:51.632Z,19.75
2023-03-06T18:01:26.921Z,20.10
2023-03-06T18:04:00.107Z,22.15
2023-03-06T18:06:57.084Z,21.77
2023-03-06T18:09:39.403Z,18.90
2023-03-06T18:12:11.815Z,21.87
2023-03-06T18:14:44.532Z,19.92
2023-03-06T18:17:17.356Z,33.55
2023-03-06T18:19:49.852Z,27.02
2023-03-06T18:22:23.199Z,24.18
2023-03-06T18:24:55.628Z,26.07
2023-03-06T18:27:28.299Z,20.10
2023-03-06T18:30:00.878Z,28.07
2023-03-06T18:32:33.626Z,20.08
2023-03-06T18:35:06.511Z,25.27
2023-03-06T18:37:39.424Z,25.65
2023-03-06T18:40:13.901Z,25.70
2023-03-06T18:42:48.681Z,23.85
2023-03-06T18:45:21.312Z,26.70
2023-03-06T18:47:53.701Z,28.10
2023-03-06T18:50:27.141Z,22.02
2023-03-06T18:52:59.545Z,23.45
2023-03-06T18:55:32.775Z,27.85
2023-03-06T18:58:05.925Z,25.77
2023-03-06T19:00:40.086Z,29.45
2023-03-06T19:03:13.358Z,24.80
2023-03-06T19:05:49.021Z,27.48
2023-03-06T19:10:53.846Z,27.27
2023-03-06T19:13:26.873Z,32.50
2023-03-06T19:15:59.259Z,28.87
2023-03-06T19:18:32.389Z,27.58
2023-03-06T19:21:13.135Z,27.70
2023-03-06T19:23:47.527Z,27.73
2023-03-06T19:26:20.017Z,25.95
2023-03-06T19:28:52.667Z,27.10
2023-03-06T19:31:27.656Z,29.00
2023-03-06T19:34:00.650Z,27.48
2023-03-06T19:36:34.423Z,30.03
2023-03-06T19:39:09.638Z,25.77
2023-03-06T19:41:42.123Z,30.27
2023-03-06T19:44:16.345Z,28.25
2023-03-06T19:46:58.824Z,30.57
2023-03-06T19:49:31.423Z,30.65
2023-03-06T19:52:05.443Z,29.27
2023-03-06T19:54:38.573Z,27.90
2023-03-06T19:57:12.142Z,24.15
2023-03-06T19:59:44.865Z,27.05
2023-03-06T20:02:20.211Z,27.07
2023-03-06T20:04:53.577Z,24.72
2023-03-06T20:07:26.345Z,23.80
2023-03-06T20:10:00.606Z,28.20
2023-03-06T20:12:34.624Z,24.02
2023-03-06T20:15:08.990Z,27.90
2023-03-06T20:17:41.389Z,24.25
2023-03-06T20:20:14.941Z,28.47
2023-03-06T20:22:47.796Z,24.45
2023-03-06T20:25:20.731Z,30.80
2023-03-06T20:27:53.487Z,28.25
2023-03-06T20:30:29.500Z,27.98
2023-03-06T20:35:32.101Z,25.75
2023-03-06T20:38:05.291Z,26.43
2023-03-06T20:41:02.666Z,30.50
2023-03-06T20:43:35.963Z,37.25
2023-03-06T20:46:08.817Z,52.50
2023-03-06T20:48:42.183Z,33.13
2023-03-06T20:51:28.103Z,30.08
2023-03-06T20:54:01.834Z,28.90
2023-03-06T20:56:36.907Z,31.93
2023-03-06T20:59:11.861Z,29.92
2023-03-06T21:01:45.958Z,31.68
2023-03-06T21:04:20.361Z,32.00
2023-03-06T21:06:55.015Z,33.28
2023-03-06T21:09:27.649Z,28.02
2023-03-06T21:12:00.728Z,26.75
2023-03-06T21:14:33.350Z,34.20
2023-03-06T21:17:06.010Z,32.58
2023-03-06T21:19:40.040Z,29.77
2023-03-06T21:22:13.781Z,30.12
2023-03-06T21:24:46.168Z,33.13
2023-03-06T21:27:19.125Z,31.48
2023-03-06T21:29:51.542Z,38.88
2023-03-06T21:32:24.075Z,36.60
2023-03-06T21:34:56.658Z,37.98
2023-03-06T21:37:29.849Z,37.65
2023-03-06T21:40:02.454Z,41.92
2023-03-06T21:42:37.348Z,41.35
2023-03-06T21:47:43.042Z,43.28
2023-03-06T21:50:16.150Z,42.95
2023-03-06T21:52:48.558Z,41.35
2023-03-06T21:55:23.180Z,45.65
2023-03-06T21:57:56.513Z,41.45
2023-03-06T22:00:29.194Z,37.93
2023-03-06T22:03:03.817Z,43.80
2023-03-06T22:05:36.277Z,40.50
2023-03-06T22:08:09.910Z,45.67
2023-03-06T22:10:43.191Z,44.75
2023-03-06T22:13:16.394Z,39.38
2023-03-06T22:15:55.183Z,45.23
2023-03-06T22:18:28.204Z,41.73
2023-03-06T22:21:01.011Z,42.78
2023-03-06T22:23:35.031Z,50.40
2023-03-06T22:26:09.372Z,51.73
2023-03-06T22:28:42.898Z,48.00
2023-03-06T22:31:18.643Z,47.60
2023-03-06T22:33:53.340Z,43.78
2023-03-06T22:36:26.228Z,48.92
2023-03-06T22:39:01.057Z,49.10
2023-03-06T22:41:33.651Z,43.63
2023-03-06T22:44:06.198Z,40.88
2023-03-06T22:46:39.440Z,44.15
2023-03-06T22:49:13.251Z,39.63
2023-03-06T22:51:45.802Z,40.28
2023-03-06T22:54:18.210Z,40.67
2023-03-06T22:56:50.599Z,39.27
2023-03-06T22:59:23.544Z,40.98
2023-03-06T23:01:57.741Z,40.85
2023-03-06T23:04:30.509Z,38.73
2023-03-06T23:07:04.724Z,35.25
2023-03-06T23:09:37.823Z,35.50
2023-03-06T23:12:27.920Z,38.00
2023-03-06T23:15:18.474Z,38.10
2023-03-06T23:18:08.867Z,36.53
2023-03-06T23:20:59.708Z,34.35
2023-03-06T23:23:52.207Z,37.40
2023-03-06T23:26:27.748Z,34.50
2023-03-06T23:29:00.728Z,31.60
2023-03-06T23:31:33.571Z,34.10
2023-03-06T23:34:06.298Z,37.95
2023-03-06T23:36:39.179Z,31.40
2023-03-06T23:39:13.714Z,30.88
2023-03-06T23:41:46.730Z,32.90
2023-03-06T23:44:19.770Z,35.03
2023-03-06T23:46:53.303Z,38.38
2023-03-06T23:49:26.250Z,33.67
2023-03-06T23:51:59.386Z,35.50
2023-03-06T23:54:33.374Z,35.58
2023-03-06T23:57:05.734Z,34.83
2023-03-06T23:59:38.282Z,37.65
